Time;durP1;ratioP1;P1;durP2;ratioP2;P2;SDS_P1;SDS_P2;PMS_P1;PMS_P2;Temp;Humidity;BMP_temperature;BMP_pressure;BME280_temperature;BME280_humidity;BME280_pressure;Samples;Min_cycle;Max_cycle;Signal;HPM_P1;HPM_P2
2022/05/27 00:02:32;;;;;;;5.20;2.72;;;;;;;;;;5035311;28;20504;-82
2022/05/27 00:05:18;;;;;;;6.80;3.00;;;;;;;;;;5019198;28;20046;-81
2022/05/27 00:08:05;;;;;;;4.75;2.58;;;;;;;;;;5041863;28;20053;-80
2022/05/27 00:10:50;;;;;;;5.88;3.00;;;;;;;;;;5035196;28;20041;-80
2022/05/27 00:13:36;;;;;;;6.53;3.13;;;;;;;;;;5035304;28;20041;-80
2022/05/27 00:16:22;;;;;;;4.15;2.67;;;;;;;;;;5020261;28;20041;-80
2022/05/27 00:19:07;;;;;;;8.50;3.08;;;;;;;;;;5035359;28;20049;-80
2022/05/27 00:21:52;;;;;;;3.45;2.28;;;;;;;;;;5034783;28;20053;-80
2022/05/27 00:24:37;;;;;;;5.43;2.65;;;;;;;;;;5035154;28;20058;-80
2022/05/27 00:27:23;;;;;;;4.80;2.30;;;;;;;;;;5041864;28;20460;-80
2022/05/27 00:30:09;;;;;;;5.00;2.40;;;;;;;;;;5034695;28;20388;-81
2022/05/27 00:32:54;;;;;;;11.32;2.65;;;;;;;;;;5035093;28;20045;-81
2022/05/27 00:35:40;;;;;;;3.78;2.60;;;;;;;;;;5034577;28;20480;-79
2022/05/27 00:38:25;;;;;;;6.95;2.58;;;;;;;;;;5035128;28;20053;-82
2022/05/27 00:41:12;;;;;;;6.78;2.75;;;;;;;;;;5035020;28;20053;-80
2022/05/27 00:43:59;;;;;;;5.43;2.70;;;;;;;;;;5034770;28;20460;-82
2022/05/27 00:46:45;;;;;;;7.55;2.60;;;;;;;;;;5034763;28;20045;-79
2022/05/27 00:49:32;;;;;;;4.45;2.70;;;;;;;;;;5034638;28;20045;-81
2022/05/27 00:52:21;;;;;;;4.63;2.45;;;;;;;;;;5041089;28;20045;-82
2022/05/27 00:55:11;;;;;;;5.72;2.42;;;;;;;;;;5034803;28;20045;-82
2022/05/27 00:58:01;;;;;;;3.90;2.58;;;;;;;;;;5036702;28;20042;-79
2022/05/27 01:00:47;;;;;;;6.68;2.72;;;;;;;;;;5037894;28;20049;-79
2022/05/27 01:03:33;;;;;;;2.97;2.50;;;;;;;;;;5041283;28;20038;-81
2022/05/27 01:06:18;;;;;;;3.13;2.30;;;;;;;;;;5036655;28;20045;-80
2022/05/27 01:09:04;;;;;;;6.35;2.83;;;;;;;;;;5035035;28;20037;-80
2022/05/27 01:12:25;;;;;;;5.50;2.63;;;;;;;;;;5033665;28;20041;-80
2022/05/27 01:15:25;;;;;;;5.45;2.67;;;;;;;;;;5014048;28;20053;-80
2022/05/27 01:18:22;;;;;;;7.82;2.63;;;;;;;;;;5040477;28;20065;-81
2022/05/27 01:21:17;;;;;;;5.70;2.90;;;;;;;;;;5026214;28;20049;-81
2022/05/27 01:24:15;;;;;;;4.63;3.00;;;;;;;;;;5026100;28;20045;-83
2022/05/27 01:27:11;;;;;;;5.90;2.95;;;;;;;;;;5033773;28;20057;-81
2022/05/27 01:30:34;;;;;;;6.45;3.20;;;;;;;;;;5034480;28;20049;-81
2022/05/27 01:33:40;;;;;;;4.85;3.00;;;;;;;;;;5018904;28;20038;-79
2022/05/27 01:36:44;;;;;;;5.32;2.45;;;;;;;;;;5033642;28;20049;-80
2022/05/27 01:39:33;;;;;;;3.85;2.70;;;;;;;;;;5018913;28;20041;-81
2022/05/27 01:42:32;;;;;;;4.68;2.50;;;;;;;;;;5033799;28;20061;-81
2022/05/27 01:45:43;;;;;;;7.30;2.60;;;;;;;;;;5035438;28;20042;-81
2022/05/27 01:48:34;;;;;;;3.15;2.40;;;;;;;;;;5014010;28;20408;-80
2022/05/27 01:51:29;;;;;;;3.80;2.50;;;;;;;;;;5033864;28;20045;-81
2022/05/27 01:54:38;;;;;;;5.38;3.08;;;;;;;;;;5033495;28;20080;-81
2022/05/27 01:57:44;;;;;;;3.63;2.55;;;;;;;;;;5033929;28;20041;-79
2022/05/27 02:00:29;;;;;;;5.93;2.95;;;;;;;;;;5033062;28;20046;-79
2022/05/27 02:03:39;;;;;;;5.30;3.20;;;;;;;;;;5040339;28;20049;-79
2022/05/27 02:06:47;;;;;;;6.85;2.70;;;;;;;;;;5033362;28;20388;-80
2022/05/27 02:09:46;;;;;;;4.18;2.50;;;;;;;;;;5033561;28;20046;-80
2022/05/27 02:13:03;;;;;;;6.13;2.55;;;;;;;;;;5033297;28;20396;-80
2022/05/27 02:15:51;;;;;;;3.10;2.47;;;;;;;;;;5024915;28;20049;-80
2022/05/27 02:18:42;;;;;;;3.10;2.75;;;;;;;;;;5033672;28;20488;-80
2022/05/27 02:21:39;;;;;;;5.07;2.60;;;;;;;;;;5033202;28;20041;-78
2022/05/27 02:24:36;;;;;;;5.03;2.92;;;;;;;;;;5040616;28;20049;-80
2022/05/27 02:27:29;;;;;;;3.00;2.50;;;;;;;;;;5033667;28;20045;-81
2022/05/27 02:30:16;;;;;;;4.75;2.58;;;;;;;;;;5037251;28;20045;-81
2022/05/27 02:36:44;;;;;;;7.30;2.88;;;;;;;;;;5036613;28;20046;-79
2022/05/27 02:39:29;;;;;;;9.38;3.00;;;;;;;;;;5037019;28;20053;-79
2022/05/27 02:42:53;;;;;;;6.63;3.17;;;;;;;;;;5036729;28;20053;-79
2022/05/27 02:46:03;;;;;;;5.82;3.15;;;;;;;;;;5005714;28;20049;-79
2022/05/27 02:49:06;;;;;;;6.30;3.20;;;;;;;;;;5036625;28;20041;-78
2022/05/27 02:52:01;;;;;;;5.43;3.38;;;;;;;;;;5036661;28;20049;-81
2022/05/27 02:54:52;;;;;;;7.25;3.38;;;;;;;;;;5022112;28;20396;-80
2022/05/27 02:57:44;;;;;;;7.55;3.13;;;;;;;;;;5036529;28;20049;-79
2022/05/27 03:00:34;;;;;;;4.07;2.90;;;;;;;;;;5036879;28;20396;-81
2022/05/27 03:03:20;;;;;;;10.98;3.47;;;;;;;;;;5028964;28;20053;-80
2022/05/27 03:06:26;;;;;;;8.75;3.30;;;;;;;;;;5036720;28;20477;-79
2022/05/27 03:09:37;;;;;;;5.25;3.30;;;;;;;;;;5036905;28;20484;-81
2022/05/27 03:12:38;;;;;;;4.72;3.03;;;;;;;;;;5036465;28;20054;-81
2022/05/27 03:15:42;;;;;;;13.23;3.30;;;;;;;;;;5036704;28;20041;-81
2022/05/27 03:18:42;;;;;;;6.70;2.60;;;;;;;;;;5036205;28;20041;-79
2022/05/27 03:21:43;;;;;;;7.00;2.85;;;;;;;;;;5036875;28;20057;-82
2022/05/27 03:24:45;;;;;;;4.18;2.83;;;;;;;;;;5024449;28;20041;-82
2022/05/27 03:27:49;;;;;;;9.57;3.03;;;;;;;;;;5022547;28;20045;-83
2022/05/27 03:30:43;;;;;;;5.50;2.83;;;;;;;;;;5037112;28;20038;-83
2022/05/27 03:33:52;;;;;;;3.70;2.65;;;;;;;;;;5037080;28;20053;-83
2022/05/27 03:36:57;;;;;;;5.65;2.80;;;;;;;;;;5037124;28;20472;-82
2022/05/27 03:39:46;;;;;;;6.80;3.15;;;;;;;;;;5029650;28;20041;-82
2022/05/27 03:42:33;;;;;;;6.70;2.90;;;;;;;;;;5024202;28;20509;-79
2022/05/27 03:45:21;;;;;;;7.05;2.95;;;;;;;;;;5040855;28;20405;-83
2022/05/27 03:48:07;;;;;;;6.28;2.72;;;;;;;;;;5043985;28;20045;-83
2022/05/27 03:50:57;;;;;;;6.07;2.70;;;;;;;;;;5042009;28;20400;-83
2022/05/27 03:56:45;;;;;;;5.10;2.72;;;;;;;;;;5035428;28;20403;-82
2022/05/27 03:59:31;;;;;;;9.57;3.30;;;;;;;;;;5027335;28;20480;-82
2022/05/27 04:02:15;;;;;;;9.75;3.60;;;;;;;;;;5035569;28;20045;-85
2022/05/27 04:05:01;;;;;;;4.03;3.00;;;;;;;;;;5035188;28;20038;-81
2022/05/27 04:07:47;;;;;;;5.55;3.08;;;;;;;;;;5009784;28;20045;-82
2022/05/27 04:10:33;;;;;;;5.30;3.20;;;;;;;;;;5035140;28;20411;-82
2022/05/27 04:13:18;;;;;;;8.77;3.83;;;;;;;;;;5026952;28;20476;-82
2022/05/27 04:16:04;;;;;;;6.50;3.22;;;;;;;;;;5034481;28;20050;-81
2022/05/27 04:18:49;;;;;;;9.18;3.60;;;;;;;;;;5040523;28;20045;-81
2022/05/27 04:21:38;;;;;;;8.93;3.53;;;;;;;;;;5026877;28;20057;-81
2022/05/27 04:24:23;;;;;;;5.15;3.15;;;;;;;;;;5035754;28;20377;-80
2022/05/27 04:27:11;;;;;;;10.95;3.15;;;;;;;;;;5034685;28;20049;-82
2022/05/27 04:29:56;;;;;;;6.40;3.35;;;;;;;;;;5035213;28;20050;-82
2022/05/27 04:32:42;;;;;;;7.07;3.20;;;;;;;;;;5034758;28;20041;-82
2022/05/27 04:35:28;;;;;;;7.78;3.13;;;;;;;;;;5034664;28;20061;-82
2022/05/27 04:38:14;;;;;;;8.25;3.10;;;;;;;;;;5035032;28;20042;-84
2022/05/27 04:40:58;;;;;;;5.70;3.30;;;;;;;;;;5028226;28;20042;-82
2022/05/27 04:43:43;;;;;;;6.88;3.25;;;;;;;;;;5030160;28;20057;-81
2022/05/27 04:46:29;;;;;;;7.97;4.20;;;;;;;;;;5029486;28;20045;-81
2022/05/27 04:52:23;;;;;;;7.90;3.63;;;;;;;;;;5033829;28;20042;-81
2022/05/27 04:55:12;;;;;;;6.43;3.80;;;;;;;;;;5034188;28;20045;-82
2022/05/27 04:57:59;;;;;;;8.40;3.97;;;;;;;;;;5034577;28;20045;-83
2022/05/27 05:00:47;;;;;;;5.55;3.38;;;;;;;;;;5034735;28;20037;-84
2022/05/27 05:03:32;;;;;;;12.30;3.40;;;;;;;;;;5018656;28;20481;-82
2022/05/27 05:06:18;;;;;;;7.57;3.20;;;;;;;;;;5013400;28;20045;-80
2022/05/27 05:09:03;;;;;;;8.30;2.78;;;;;;;;;;5005120;28;20593;-82
2022/05/27 05:11:49;;;;;;;7.47;2.90;;;;;;;;;;5014562;28;20046;-81
2022/05/27 05:14:34;;;;;;;8.38;3.05;;;;;;;;;;5005304;28;20042;-81
2022/05/27 05:17:21;;;;;;;7.65;2.60;;;;;;;;;;5013889;28;20038;-82
2022/05/27 05:20:07;;;;;;;5.20;2.50;;;;;;;;;;5014924;28;20050;-81
2022/05/27 05:22:52;;;;;;;4.97;2.38;;;;;;;;;;5005869;28;20424;-81
2022/05/27 05:25:38;;;;;;;8.88;3.00;;;;;;;;;;5014266;28;20397;-83
2022/05/27 05:28:24;;;;;;;7.57;2.72;;;;;;;;;;5014315;28;20046;-82
2022/05/27 05:31:13;;;;;;;5.22;2.85;;;;;;;;;;5020343;28;20054;-80
2022/05/27 05:33:59;;;;;;;5.63;2.47;;;;;;;;;;5014090;28;20046;-82
2022/05/27 05:36:45;;;;;;;13.68;3.20;;;;;;;;;;5014459;28;20046;-81
2022/05/27 05:39:30;;;;;;;6.40;2.75;;;;;;;;;;5006022;28;20053;-81
2022/05/27 05:42:16;;;;;;;8.45;3.30;;;;;;;;;;5014172;28;20505;-81
2022/05/27 05:45:01;;;;;;;6.15;2.70;;;;;;;;;;5013688;28;20049;-81
2022/05/27 05:47:47;;;;;;;4.95;3.22;;;;;;;;;;5014096;28;20404;-80
2022/05/27 05:50:33;;;;;;;8.20;3.30;;;;;;;;;;5013884;28;20042;-80
2022/05/27 05:53:19;;;;;;;8.80;3.20;;;;;;;;;;5014259;28;20042;-82
2022/05/27 05:56:05;;;;;;;11.73;3.90;;;;;;;;;;5014063;28;20038;-82
2022/05/27 05:58:51;;;;;;;10.70;3.95;;;;;;;;;;5013829;28;20053;-80
2022/05/27 06:01:35;;;;;;;9.52;3.80;;;;;;;;;;5020704;28;20050;-82
2022/05/27 06:04:21;;;;;;;8.23;3.63;;;;;;;;;;5018446;28;20046;-81
2022/05/27 06:07:07;;;;;;;4.22;3.28;;;;;;;;;;5017415;28;20057;-81
2022/05/27 06:09:52;;;;;;;7.85;3.35;;;;;;;;;;5003067;28;20473;-80
2022/05/27 06:12:39;;;;;;;9.00;3.70;;;;;;;;;;5017931;28;20046;-82
2022/05/27 06:15:24;;;;;;;12.27;5.43;;;;;;;;;;5028362;28;20046;-80
2022/05/27 06:18:12;;;;;;;10.45;5.03;;;;;;;;;;5020370;28;20393;-79
2022/05/27 06:20:58;;;;;;;8.73;5.30;;;;;;;;;;5020059;28;20058;-81
2022/05/27 06:23:44;;;;;;;11.90;4.82;;;;;;;;;;5018229;28;20400;-80
2022/05/27 06:26:29;;;;;;;7.88;4.25;;;;;;;;;;5023899;28;20046;-80
2022/05/27 06:35:22;;;;;;;7.60;3.75;;;;;;;;;;5017343;28;20041;-80
2022/05/27 06:38:08;;;;;;;7.28;3.72;;;;;;;;;;5017566;28;20046;-81
2022/05/27 06:40:52;;;;;;;6.90;3.47;;;;;;;;;;5017101;28;20042;-80
2022/05/27 06:43:37;;;;;;;6.55;3.80;;;;;;;;;;5023183;28;20054;-82
2022/05/27 06:46:23;;;;;;;6.70;3.65;;;;;;;;;;5017091;28;20049;-81
2022/05/27 06:49:08;;;;;;;7.72;4.18;;;;;;;;;;5023285;28;20046;-81
2022/05/27 06:51:53;;;;;;;6.78;3.58;;;;;;;;;;5023642;28;20400;-82
2022/05/27 06:54:41;;;;;;;8.35;3.90;;;;;;;;;;5016715;28;20481;-80
2022/05/27 06:57:26;;;;;;;7.97;4.13;;;;;;;;;;5016779;28;20042;-81
2022/05/27 07:00:12;;;;;;;6.65;3.42;;;;;;;;;;5023338;28;20038;-80
2022/05/27 07:02:57;;;;;;;9.35;3.88;;;;;;;;;;5022809;28;20057;-82
2022/05/27 07:05:43;;;;;;;11.25;5.05;;;;;;;;;;5016560;28;20041;-81
2022/05/27 07:08:29;;;;;;;7.40;4.20;;;;;;;;;;5023006;28;20046;-80
2022/05/27 07:11:14;;;;;;;15.23;5.85;;;;;;;;;;5016475;28;20046;-82
2022/05/27 07:14:00;;;;;;;12.00;4.88;;;;;;;;;;5015788;28;20396;-81
2022/05/27 07:16:47;;;;;;;12.38;5.05;;;;;;;;;;5016214;28;20389;-80
2022/05/27 07:19:32;;;;;;;11.27;5.25;;;;;;;;;;5016756;28;20049;-81
2022/05/27 07:22:18;;;;;;;9.40;4.65;;;;;;;;;;5024188;28;20057;-81
2022/05/27 07:25:03;;;;;;;9.07;4.07;;;;;;;;;;5021651;28;20054;-82
2022/05/27 07:27:49;;;;;;;7.22;3.60;;;;;;;;;;5036006;28;20056;-82
2022/05/27 07:30:35;;;;;;;9.35;4.38;;;;;;;;;;5035671;28;20038;-79
2022/05/27 07:33:21;;;;;;;11.88;4.20;;;;;;;;;;5035932;28;20049;-80
2022/05/27 07:36:07;;;;;;;10.70;3.25;;;;;;;;;;5035686;28;20042;-80
2022/05/27 07:38:52;;;;;;;10.35;2.97;;;;;;;;;;5035837;28;20041;-80
2022/05/27 07:41:38;;;;;;;14.88;3.42;;;;;;;;;;5042560;28;20068;-81
2022/05/27 07:44:23;;;;;;;11.30;3.22;;;;;;;;;;5034950;28;20053;-79
2022/05/27 07:47:09;;;;;;;12.07;3.33;;;;;;;;;;5035658;28;20037;-79
2022/05/27 07:49:54;;;;;;;6.35;2.58;;;;;;;;;;5042072;28;20041;-78
2022/05/27 07:52:42;;;;;;;6.13;2.65;;;;;;;;;;5042818;28;20404;-79
2022/05/27 07:55:28;;;;;;;7.38;2.75;;;;;;;;;;5042118;28;20053;-79
2022/05/27 07:58:13;;;;;;;5.57;2.13;;;;;;;;;;5042075;28;20045;-79
2022/05/27 08:00:59;;;;;;;6.25;2.15;;;;;;;;;;5041824;28;20053;-79
2022/05/27 08:03:44;;;;;;;6.18;2.00;;;;;;;;;;5042089;28;20057;-79
2022/05/27 08:06:30;;;;;;;9.60;2.10;;;;;;;;;;5041042;28;20053;-78
2022/05/27 08:09:16;;;;;;;5.82;1.90;;;;;;;;;;5040532;28;20054;-78
2022/05/27 08:12:01;;;;;;;3.47;1.75;;;;;;;;;;5041079;28;20407;-79
2022/05/27 08:14:48;;;;;;;5.65;1.65;;;;;;;;;;5041700;28;20045;-77
2022/05/27 08:17:33;;;;;;;4.60;1.60;;;;;;;;;;5034831;28;20037;-78
2022/05/27 08:20:23;;;;;;;6.40;1.55;;;;;;;;;;5041762;28;20053;-79
2022/05/27 08:23:08;;;;;;;2.88;2.00;;;;;;;;;;5034857;28;20068;-78
2022/05/27 08:25:55;;;;;;;5.40;2.17;;;;;;;;;;5040503;28;20049;-78
2022/05/27 08:28:39;;;;;;;4.80;2.25;;;;;;;;;;5035402;28;20473;-77
2022/05/27 08:31:24;;;;;;;4.30;1.83;;;;;;;;;;5041502;28;20041;-79
2022/05/27 08:40:44;;;;;;;3.03;1.83;;;;;;;;;;5041204;28;20045;-79
2022/05/27 08:44:06;;;;;;;4.28;1.90;;;;;;;;;;5034720;28;20054;-78
2022/05/27 08:47:02;;;;;;;4.07;1.85;;;;;;;;;;5034588;28;20045;-80
2022/05/27 08:50:05;;;;;;;5.57;1.85;;;;;;;;;;5041475;28;20049;-79
2022/05/27 08:53:04;;;;;;;3.65;2.30;;;;;;;;;;5042881;28;20045;-81
2022/05/27 09:02:27;;;;;;;9.52;2.58;;;;;;;;;;5034102;28;20049;-82
2022/05/27 09:05:24;;;;;;;9.57;2.63;;;;;;;;;;5034359;28;20045;-83
2022/05/27 09:08:25;;;;;;;3.85;2.00;;;;;;;;;;5040486;28;20045;-81
2022/05/27 09:11:36;;;;;;;7.22;2.22;;;;;;;;;;5034341;28;20037;-82
2022/05/27 09:14:26;;;;;;;6.68;2.60;;;;;;;;;;5033742;28;20484;-82
2022/05/27 09:17:17;;;;;;;4.70;2.22;;;;;;;;;;5040639;28;20041;-82
2022/05/27 09:20:35;;;;;;;10.20;2.28;;;;;;;;;;5034307;28;20034;-83
2022/05/27 09:23:23;;;;;;;5.18;2.15;;;;;;;;;;5040799;28;20054;-83
2022/05/27 09:26:16;;;;;;;10.73;2.60;;;;;;;;;;5040479;28;20054;-83
2022/05/27 09:29:06;;;;;;;7.65;2.50;;;;;;;;;;5040464;28;20049;-83
2022/05/27 09:32:03;;;;;;;3.88;2.30;;;;;;;;;;5033712;28;20071;-80
2022/05/27 09:34:49;;;;;;;6.85;2.40;;;;;;;;;;5033224;28;20041;-83
2022/05/27 09:37:39;;;;;;;7.90;3.00;;;;;;;;;;5034038;28;20049;-83
2022/05/27 09:40:48;;;;;;;4.45;2.67;;;;;;;;;;5040512;28;20045;-81
2022/05/27 09:43:42;;;;;;;9.75;2.50;;;;;;;;;;5034053;28;20065;-82
2022/05/27 09:46:31;;;;;;;6.32;2.40;;;;;;;;;;5034655;28;20057;-82
2022/05/27 09:49:17;;;;;;;6.13;2.50;;;;;;;;;;5034607;28;20045;-82
2022/05/27 09:52:03;;;;;;;7.03;2.38;;;;;;;;;;5040839;28;20476;-82
2022/05/27 09:54:55;;;;;;;4.80;2.15;;;;;;;;;;5040384;28;20049;-81
2022/05/27 09:57:55;;;;;;;4.32;2.25;;;;;;;;;;5024989;28;20041;-82
2022/05/27 10:00:49;;;;;;;3.55;2.20;;;;;;;;;;5033668;28;20045;-82
2022/05/27 10:03:37;;;;;;;16.73;2.80;;;;;;;;;;5024928;28;20053;-82
2022/05/27 10:06:26;;;;;;;8.85;2.33;;;;;;;;;;5033704;28;20271;-83
2022/05/27 10:09:33;;;;;;;5.18;2.50;;;;;;;;;;5040419;28;20464;-80
2022/05/27 10:12:33;;;;;;;7.90;2.47;;;;;;;;;;5033239;28;20049;-82
2022/05/27 10:15:34;;;;;;;7.10;2.58;;;;;;;;;;5040173;28;20468;-84
2022/05/27 10:18:26;;;;;;;5.07;2.50;;;;;;;;;;5033123;28;20057;-81
2022/05/27 10:21:18;;;;;;;5.18;2.20;;;;;;;;;;5033394;28;20037;-82
2022/05/27 10:24:17;;;;;;;4.80;2.42;;;;;;;;;;5033350;28;20050;-83
2022/05/27 10:27:23;;;;;;;5.03;2.40;;;;;;;;;;5033648;28;20045;-82
2022/05/27 10:30:26;;;;;;;4.47;2.40;;;;;;;;;;5033071;28;20484;-83
2022/05/27 10:33:41;;;;;;;4.83;2.30;;;;;;;;;;5033233;28;20045;-83
2022/05/27 10:36:42;;;;;;;5.57;2.42;;;;;;;;;;5039772;28;20049;-81
2022/05/27 10:39:47;;;;;;;10.38;2.50;;;;;;;;;;5032950;28;20053;-80
2022/05/27 10:42:45;;;;;;;5.50;2.72;;;;;;;;;;5033428;28;20049;-80
2022/05/27 10:45:34;;;;;;;7.05;2.70;;;;;;;;;;5032436;28;20049;-82
2022/05/27 10:48:27;;;;;;;5.55;3.08;;;;;;;;;;5032869;28;20049;-81
2022/05/27 10:51:22;;;;;;;5.07;2.80;;;;;;;;;;5036697;28;20038;-82
2022/05/27 10:54:33;;;;;;;12.20;2.67;;;;;;;;;;5036612;28;20042;-83
2022/05/27 11:04:17;;;;;;;4.55;2.42;;;;;;;;;;5036852;28;20045;-81
2022/05/27 11:07:40;;;;;;;5.82;2.60;;;;;;;;;;5042798;28;20479;-83
2022/05/27 11:10:47;;;;;;;8.77;2.63;;;;;;;;;;5043300;28;20045;-81
2022/05/27 11:17:22;;;;;;;4.30;2.33;;;;;;;;;;5044438;28;20049;-83
2022/05/27 11:20:24;;;;;;;7.90;2.92;;;;;;;;;;5039875;28;20057;-81
2022/05/27 11:23:27;;;;;;;6.85;2.50;;;;;;;;;;5039801;28;20053;-80
2022/05/27 11:26:35;;;;;;;6.03;3.00;;;;;;;;;;5039104;28;20057;-79
2022/05/27 11:29:45;;;;;;;10.13;2.97;;;;;;;;;;5038809;28;20400;-80
2022/05/27 11:32:47;;;;;;;9.57;2.85;;;;;;;;;;5039974;28;20488;-82
2022/05/27 11:35:50;;;;;;;4.68;2.55;;;;;;;;;;5042380;28;20049;-79
2022/05/27 11:38:42;;;;;;;5.63;2.83;;;;;;;;;;5045097;28;20045;-83
2022/05/27 11:41:49;;;;;;;6.78;2.63;;;;;;;;;;5033466;28;20041;-80
2022/05/27 11:44:41;;;;;;;6.25;2.67;;;;;;;;;;5036190;28;20049;-80
2022/05/27 11:47:50;;;;;;;7.55;2.90;;;;;;;;;;5035701;28;20042;-80
2022/05/27 11:50:53;;;;;;;6.00;2.85;;;;;;;;;;5043047;28;20476;-83
2022/05/27 11:54:15;;;;;;;4.65;2.70;;;;;;;;;;5035337;28;20037;-80
2022/05/27 11:57:46;;;;;;;8.23;2.72;;;;;;;;;;5035254;28;20400;-81
2022/05/27 12:00:38;;;;;;;5.55;2.80;;;;;;;;;;5010726;28;20053;-81
2022/05/27 12:03:56;;;;;;;7.10;2.60;;;;;;;;;;5035009;28;20045;-82
2022/05/27 12:06:50;;;;;;;7.50;3.33;;;;;;;;;;4977679;28;20054;-83
2022/05/27 12:09:38;;;;;;;6.15;3.05;;;;;;;;;;5035025;28;20050;-84
2022/05/27 12:12:50;;;;;;;7.10;3.33;;;;;;;;;;5035311;28;20050;-83
2022/05/27 12:16:08;;;;;;;15.38;3.00;;;;;;;;;;5041738;28;20049;-82
2022/05/27 12:19:01;;;;;;;4.45;2.90;;;;;;;;;;5042081;28;20476;-83
2022/05/27 12:22:04;;;;;;;8.27;2.88;;;;;;;;;;5035455;28;20049;-84
2022/05/27 12:24:54;;;;;;;8.60;3.33;;;;;;;;;;5034819;28;20053;-81
2022/05/27 12:27:40;;;;;;;11.30;3.10;;;;;;;;;;5034954;28;20053;-82
2022/05/27 12:30:33;;;;;;;11.32;3.10;;;;;;;;;;5035088;28;20049;-80
2022/05/27 12:33:23;;;;;;;7.05;2.72;;;;;;;;;;5034853;28;20049;-81
2022/05/27 12:36:26;;;;;;;5.68;3.00;;;;;;;;;;5035056;28;20049;-82
2022/05/27 12:39:23;;;;;;;4.40;2.90;;;;;;;;;;5034775;28;20396;-83
2022/05/27 12:42:10;;;;;;;5.55;3.00;;;;;;;;;;5028567;28;20050;-83
2022/05/27 12:45:01;;;;;;;6.50;2.67;;;;;;;;;;5024040;28;20049;-83
2022/05/27 12:47:50;;;;;;;5.63;2.67;;;;;;;;;;5007321;28;20045;-82
2022/05/27 12:50:39;;;;;;;5.20;2.95;;;;;;;;;;5018101;28;20045;-83
2022/05/27 12:53:57;;;;;;;7.97;3.30;;;;;;;;;;5040733;28;20045;-82
2022/05/27 13:02:54;;;;;;;9.95;3.45;;;;;;;;;;5034143;28;20508;-82
2022/05/27 13:06:14;;;;;;;4.47;2.92;;;;;;;;;;5032597;28;20057;-81
2022/05/27 13:09:04;;;;;;;5.97;3.00;;;;;;;;;;5034222;28;20033;-81
2022/05/27 13:11:49;;;;;;;8.15;2.90;;;;;;;;;;5037772;28;20046;-84
2022/05/27 13:14:47;;;;;;;6.93;3.13;;;;;;;;;;5034019;28;20038;-84
2022/05/27 13:17:35;;;;;;;9.45;3.00;;;;;;;;;;5034144;28;20038;-81
2022/05/27 13:20:25;;;;;;;7.47;3.10;;;;;;;;;;5041130;28;20384;-81
2022/05/27 13:23:17;;;;;;;6.82;3.17;;;;;;;;;;5033049;28;20487;-80
2022/05/27 13:26:10;;;;;;;7.35;3.00;;;;;;;;;;5040181;28;20049;-82
2022/05/27 13:28:59;;;;;;;9.70;3.40;;;;;;;;;;5033852;28;20045;-82
2022/05/27 13:31:45;;;;;;;7.72;3.22;;;;;;;;;;5040922;28;20054;-81
2022/05/27 13:35:14;;;;;;;7.25;3.20;;;;;;;;;;5022749;28;20042;-82
2022/05/27 13:38:01;;;;;;;8.70;3.78;;;;;;;;;;5031927;28;20053;-81
2022/05/27 13:40:47;;;;;;;8.43;3.63;;;;;;;;;;5034372;28;20045;-82
2022/05/27 13:43:39;;;;;;;7.07;3.97;;;;;;;;;;5032043;28;20101;-81
2022/05/27 13:46:32;;;;;;;9.95;3.92;;;;;;;;;;5033390;28;20045;-81
2022/05/27 13:49:30;;;;;;;7.07;3.42;;;;;;;;;;5034033;28;20053;-81
2022/05/27 13:52:32;;;;;;;11.38;3.67;;;;;;;;;;5033454;28;20053;-86
2022/05/27 13:55:24;;;;;;;6.95;3.40;;;;;;;;;;5033739;28;20484;-82
2022/05/27 13:58:11;;;;;;;7.32;3.72;;;;;;;;;;5033587;28;20472;-82
2022/05/27 14:01:01;;;;;;;9.88;4.32;;;;;;;;;;5040666;28;20057;-82
2022/05/27 14:04:03;;;;;;;9.38;4.90;;;;;;;;;;5040210;28;20057;-82
2022/05/27 14:06:49;;;;;;;10.98;4.38;;;;;;;;;;5033931;28;20049;-83
2022/05/27 14:09:35;;;;;;;8.25;3.97;;;;;;;;;;5033101;28;20042;-83
2022/05/27 14:12:20;;;;;;;7.60;3.90;;;;;;;;;;5033123;28;20057;-83
2022/05/27 14:15:09;;;;;;;7.07;3.95;;;;;;;;;;5038177;28;20037;-81
2022/05/27 14:17:56;;;;;;;8.25;3.88;;;;;;;;;;5035163;28;20050;-79
2022/05/27 14:23:45;;;;;;;12.77;3.93;;;;;;;;;;5033588;28;20058;-82
2022/05/27 14:26:36;;;;;;;8.80;3.70;;;;;;;;;;5027195;28;20189;-81
2022/05/27 14:29:22;;;;;;;11.43;3.95;;;;;;;;;;5025859;28;20042;-82
2022/05/27 14:32:15;;;;;;;12.18;4.20;;;;;;;;;;5037218;28;20396;-83
2022/05/27 14:35:06;;;;;;;6.07;3.70;;;;;;;;;;5037099;28;20042;-81
2022/05/27 14:37:58;;;;;;;9.48;4.28;;;;;;;;;;5043692;28;20045;-83
2022/05/27 14:40:46;;;;;;;9.52;4.50;;;;;;;;;;5035790;28;20049;-83
2022/05/27 14:43:44;;;;;;;10.50;4.10;;;;;;;;;;5033753;28;20484;-81
2022/05/27 14:46:32;;;;;;;9.80;4.13;;;;;;;;;;5036224;28;20045;-81
2022/05/27 14:49:39;;;;;;;9.82;4.03;;;;;;;;;;5036825;28;20050;-82
2022/05/27 14:52:30;;;;;;;11.00;4.30;;;;;;;;;;5036785;28;20038;-83
2022/05/27 14:55:24;;;;;;;9.15;4.00;;;;;;;;;;5036543;28;20033;-83
2022/05/27 14:58:11;;;;;;;6.20;3.97;;;;;;;;;;5030383;28;20049;-82
2022/05/27 15:00:56;;;;;;;7.95;4.20;;;;;;;;;;5036809;28;20049;-81
2022/05/27 15:03:42;;;;;;;8.20;4.50;;;;;;;;;;5017088;28;20045;-82
2022/05/27 15:06:29;;;;;;;11.68;4.22;;;;;;;;;;5022406;28;20049;-82
2022/05/27 15:09:31;;;;;;;12.77;4.85;;;;;;;;;;5016428;28;20050;-83
2022/05/27 15:12:27;;;;;;;7.60;3.70;;;;;;;;;;5024379;28;20049;-81
2022/05/27 15:15:32;;;;;;;10.57;3.95;;;;;;;;;;5035300;28;20041;-82
2022/05/27 15:18:26;;;;;;;;;;;;;;;;;;5043666;28;20046;-85
2022/05/27 15:21:21;;;;;;;10.98;4.15;;;;;;;;;;5035280;28;19913;-81
2022/05/27 15:24:17;;;;;;;13.45;4.20;;;;;;;;;;5031211;28;20498;-83
2022/05/27 15:33:58;;;;;;;8.98;3.72;;;;;;;;;;5029069;28;20045;-81
2022/05/27 15:36:43;;;;;;;14.13;3.85;;;;;;;;;;5022076;28;20038;-82
2022/05/27 15:39:29;;;;;;;12.20;3.90;;;;;;;;;;5015835;28;20121;-82
2022/05/27 15:42:14;;;;;;;9.20;3.90;;;;;;;;;;5001275;28;20054;-82
2022/05/27 15:45:00;;;;;;;7.65;3.85;;;;;;;;;;5016266;28;20050;-82
2022/05/27 15:47:48;;;;;;;5.55;3.50;;;;;;;;;;5033081;28;20041;-83
2022/05/27 15:50:35;;;;;;;11.05;3.60;;;;;;;;;;5042050;28;20053;-82
2022/05/27 15:53:22;;;;;;;11.20;3.70;;;;;;;;;;5022229;28;20050;-81
2022/05/27 15:56:08;;;;;;;6.22;3.97;;;;;;;;;;5035246;28;20045;-81
2022/05/27 15:58:54;;;;;;;11.60;4.32;;;;;;;;;;5036409;28;20049;-81
2022/05/27 16:01:39;;;;;;;13.32;4.30;;;;;;;;;;5041788;28;20480;-81
2022/05/27 16:04:25;;;;;;;8.23;3.60;;;;;;;;;;5041769;28;20484;-83
2022/05/27 16:07:09;;;;;;;11.55;3.97;;;;;;;;;;5041271;28;20053;-84
2022/05/27 16:10:01;;;;;;;9.40;3.65;;;;;;;;;;5021922;28;20057;-82
2022/05/27 16:12:48;;;;;;;7.20;3.60;;;;;;;;;;5015356;28;20046;-83
2022/05/27 16:15:37;;;;;;;10.77;3.55;;;;;;;;;;5019479;28;20037;-84
2022/05/27 16:18:23;;;;;;;7.47;3.38;;;;;;;;;;5030284;28;20057;-83
2022/05/27 16:21:11;;;;;;;7.13;3.40;;;;;;;;;;5031105;28;20045;-82
2022/05/27 16:23:57;;;;;;;5.95;3.25;;;;;;;;;;5028769;28;20041;-82
2022/05/27 16:26:42;;;;;;;13.00;3.70;;;;;;;;;;5033548;28;20053;-82
2022/05/27 16:29:27;;;;;;;10.15;3.60;;;;;;;;;;5023102;28;20468;-82
2022/05/27 16:32:13;;;;;;;7.65;3.78;;;;;;;;;;5023863;28;20484;-85
2022/05/27 16:34:58;;;;;;;7.07;3.47;;;;;;;;;;5039726;28;20045;-81
2022/05/27 16:37:44;;;;;;;11.25;4.00;;;;;;;;;;5030150;28;20049;-83
2022/05/27 16:40:31;;;;;;;16.25;4.22;;;;;;;;;;5029166;28;20480;-83
2022/05/27 16:43:16;;;;;;;10.98;4.20;;;;;;;;;;5034663;28;20042;-83
2022/05/27 16:46:04;;;;;;;16.05;4.03;;;;;;;;;;5034091;28;20045;-82
2022/05/27 16:48:50;;;;;;;11.48;3.67;;;;;;;;;;5033582;28;20062;-82
2022/05/27 16:51:35;;;;;;;9.00;3.92;;;;;;;;;;5033253;28;20041;-82
2022/05/27 16:54:21;;;;;;;11.40;4.10;;;;;;;;;;5033626;28;20049;-83
2022/05/27 16:57:06;;;;;;;8.70;4.05;;;;;;;;;;5038564;28;20045;-81
2022/05/27 16:59:52;;;;;;;13.65;4.40;;;;;;;;;;5035834;28;20045;-81
2022/05/27 17:02:40;;;;;;;12.80;4.63;;;;;;;;;;5042372;28;20041;-83
2022/05/27 17:05:27;;;;;;;10.02;4.30;;;;;;;;;;5040901;28;20061;-82
2022/05/27 17:08:12;;;;;;;16.02;4.72;;;;;;;;;;5033991;28;20054;-81
2022/05/27 17:10:58;;;;;;;9.45;3.95;;;;;;;;;;5028192;28;20042;-83
2022/05/27 17:13:44;;;;;;;14.85;4.80;;;;;;;;;;5037044;28;20046;-82
2022/05/27 17:16:30;;;;;;;14.25;4.40;;;;;;;;;;5025478;28;20057;-82
2022/05/27 17:19:15;;;;;;;9.88;4.30;;;;;;;;;;5019634;28;20500;-80
2022/05/27 17:22:00;;;;;;;12.32;4.43;;;;;;;;;;5033815;28;20046;-82
2022/05/27 17:24:46;;;;;;;13.35;4.90;;;;;;;;;;5026368;28;20050;-82
2022/05/27 17:27:31;;;;;;;25.65;4.85;;;;;;;;;;5040517;28;20423;-81
2022/05/27 17:30:22;;;;;;;8.52;4.05;;;;;;;;;;5040730;28;20049;-82
2022/05/27 17:33:08;;;;;;;16.83;4.70;;;;;;;;;;5040310;28;20045;-82
2022/05/27 17:35:58;;;;;;;12.98;4.10;;;;;;;;;;5040158;28;20049;-81
2022/05/27 17:38:44;;;;;;;10.65;4.50;;;;;;;;;;5040352;28;20049;-81
2022/05/27 17:41:30;;;;;;;14.95;4.20;;;;;;;;;;5032560;28;20046;-82
2022/05/27 17:44:16;;;;;;;14.88;4.20;;;;;;;;;;5027909;28;20053;-82
2022/05/27 17:53:08;;;;;;;12.25;4.53;;;;;;;;;;5014238;28;20385;-83
2022/05/27 17:55:58;;;;;;;11.30;4.70;;;;;;;;;;5022052;28;20427;-83
2022/05/27 17:58:45;;;;;;;10.32;5.03;;;;;;;;;;5030409;28;20042;-81
2022/05/27 18:01:30;;;;;;;19.83;5.40;;;;;;;;;;5027356;28;20066;-83
2022/05/27 18:04:17;;;;;;;18.30;5.18;;;;;;;;;;5017422;28;20042;-83
2022/05/27 18:07:06;;;;;;;17.80;5.18;;;;;;;;;;5025046;28;20049;-83
2022/05/27 18:09:51;;;;;;;13.98;5.13;;;;;;;;;;5042477;28;20496;-82